Terminal Aerodrome Forecast
Issued by NWS

Home | Current Version | Previous Version | Text Only | Print | Product List | Glossary On
Versions: 1 2 3 4 5 6 7 8 9 10 11 12 13 14
626
FTUS45 KABQ 201730
TAFFMN
TAF
KFMN 201730Z 2018/2118 13005KT P6SM FEW080
     FM202200 16011KT P6SM SCT080
     FM210000 19015KT P6SM VCTS BKN080CB
      TEMPO 2100/2103 VRB25G35KT -TSRA BKN070CB
     FM210300 13010KT P6SM VCSH BKN090
     FM210900 09008KT P6SM SCT100=

USA.gov is the U.S. government's official web portal to all federal, state and local government web resources and services.